Time;durP1;ratioP1;P1;durP2;ratioP2;P2;SDS_P1;SDS_P2;PMS_P1;PMS_P2;Temp;Humidity;BMP_temperature;BMP_pressure;BME280_temperature;BME280_humidity;BME280_pressure;Samples;Min_cycle;Max_cycle;Signal;HPM_P1;HPM_P2
2021/03/28 00:00:01;;;;;;;16.80;4.25;;;;;;;;;;4973268;28;20524;-62
2021/03/28 00:02:48;;;;;;;26.80;5.63;;;;;;;;;;5004104;28;20535;-63
2021/03/28 00:05:35;;;;;;;14.05;4.53;;;;;;;;;;5013696;28;20543;-62
2021/03/28 00:08:22;;;;;;;14.80;4.53;;;;;;;;;;5013972;28;20057;-62
2021/03/28 00:11:18;;;;;;;15.85;4.10;;;;;;;;;;5014155;28;20041;-62
2021/03/28 00:14:03;;;;;;;18.15;5.25;;;;;;;;;;4997796;28;20051;-62
2021/03/28 00:16:48;;;;;;;17.05;4.55;;;;;;;;;;4994234;28;20567;-62
2021/03/28 00:19:34;;;;;;;15.77;4.95;;;;;;;;;;5013178;28;20042;-63
2021/03/28 00:22:21;;;;;;;18.30;4.82;;;;;;;;;;5013991;28;20049;-62
2021/03/28 00:25:44;;;;;;;24.20;5.07;;;;;;;;;;5013718;28;20403;-62
2021/03/28 00:28:35;;;;;;;18.60;4.70;;;;;;;;;;4973239;28;20058;-62
2021/03/28 00:31:25;;;;;;;20.40;4.82;;;;;;;;;;4959761;28;20058;-62
2021/03/28 00:34:20;;;;;;;17.90;5.47;;;;;;;;;;5008593;28;20133;-63
2021/03/28 00:37:08;;;;;;;22.15;4.95;;;;;;;;;;5014395;28;20046;-62
2021/03/28 00:39:54;;;;;;;20.20;5.20;;;;;;;;;;5014477;28;20045;-62
2021/03/28 00:42:43;;;;;;;17.60;4.80;;;;;;;;;;5011882;28;20752;-62
2021/03/28 00:45:35;;;;;;;18.67;5.80;;;;;;;;;;4993600;28;20493;-62
2021/03/28 00:48:21;;;;;;;18.60;4.90;;;;;;;;;;4993818;28;20058;-62
2021/03/28 00:51:21;;;;;;;23.55;5.05;;;;;;;;;;4993813;28;20050;-63
2021/03/28 00:54:17;;;;;;;28.58;5.65;;;;;;;;;;4996844;28;20411;-63
2021/03/28 00:57:04;;;;;;;19.33;5.32;;;;;;;;;;4999295;28;20488;-63
2021/03/28 00:59:56;;;;;;;21.75;5.05;;;;;;;;;;5013194;28;20072;-62
2021/03/28 01:03:03;;;;;;;17.20;5.32;;;;;;;;;;5013184;28;20087;-62
2021/03/28 01:05:49;;;;;;;18.08;5.35;;;;;;;;;;4974951;28;20054;-62
2021/03/28 01:08:53;;;;;;;24.95;5.35;;;;;;;;;;4974023;28;20061;-62
2021/03/28 01:11:39;;;;;;;22.42;5.55;;;;;;;;;;4975056;28;20051;-62
2021/03/28 01:14:44;;;;;;;19.80;5.07;;;;;;;;;;4990725;28;20045;-62
2021/03/28 01:17:30;;;;;;;20.48;6.40;;;;;;;;;;5012665;28;20042;-62
2021/03/28 01:20:25;;;;;;;20.77;5.18;;;;;;;;;;5012873;28;20107;-62
2021/03/28 01:23:12;;;;;;;17.95;5.38;;;;;;;;;;5013872;28;20050;-63
2021/03/28 01:26:09;;;;;;;28.92;6.88;;;;;;;;;;4994393;28;20073;-62
2021/03/28 01:28:55;;;;;;;21.50;4.90;;;;;;;;;;4993828;28;20054;-63
2021/03/28 01:31:51;;;;;;;17.67;4.97;;;;;;;;;;4993035;28;20047;-63
2021/03/28 01:34:49;;;;;;;24.55;5.95;;;;;;;;;;4996456;28;20061;-62
2021/03/28 01:37:41;;;;;;;20.85;6.13;;;;;;;;;;4978043;28;20181;-63
2021/03/28 01:40:29;;;;;;;13.43;4.10;;;;;;;;;;4974254;28;20469;-63
2021/03/28 01:43:33;;;;;;;15.60;4.32;;;;;;;;;;4996005;28;20046;-62
2021/03/28 01:46:21;;;;;;;19.73;5.47;;;;;;;;;;4993513;28;20523;-63
2021/03/28 01:49:11;;;;;;;16.63;4.57;;;;;;;;;;4993534;28;20461;-62
2021/03/28 01:52:23;;;;;;;22.20;5.15;;;;;;;;;;4993490;28;20072;-63
2021/03/28 01:55:27;;;;;;;14.15;4.90;;;;;;;;;;4995407;28;20128;-63
2021/03/28 01:58:15;;;;;;;14.75;5.00;;;;;;;;;;5012298;28;20049;-62
2021/03/28 02:01:09;;;;;;;19.67;5.00;;;;;;;;;;4993297;28;20493;-62
2021/03/28 02:04:04;;;;;;;16.63;5.30;;;;;;;;;;4992188;28;20583;-62
2021/03/28 02:07:05;;;;;;;20.52;5.97;;;;;;;;;;4993223;28;20077;-62
2021/03/28 02:10:09;;;;;;;18.77;5.10;;;;;;;;;;4992263;28;20050;-62
2021/03/28 02:13:01;;;;;;;17.13;5.53;;;;;;;;;;4993285;28;20420;-62
2021/03/28 02:15:47;;;;;;;18.02;5.38;;;;;;;;;;4993586;28;20120;-62
2021/03/28 02:18:41;;;;;;;19.13;5.95;;;;;;;;;;5005344;28;20047;-62
2021/03/28 02:21:45;;;;;;;22.17;5.90;;;;;;;;;;4993181;28;20397;-62
2021/03/28 02:24:51;;;;;;;22.75;7.07;;;;;;;;;;4992288;28;20054;-61
2021/03/28 02:27:39;;;;;;;24.23;6.95;;;;;;;;;;5005172;28;20050;-62
2021/03/28 02:30:40;;;;;;;20.15;6.60;;;;;;;;;;5012658;28;20046;-61
2021/03/28 02:33:28;;;;;;;17.13;6.40;;;;;;;;;;4991792;28;20042;-62
2021/03/28 02:36:16;;;;;;;21.63;7.05;;;;;;;;;;4992624;28;20047;-62
2021/03/28 02:39:10;;;;;;;12.27;5.72;;;;;;;;;;4992612;28;20138;-62
2021/03/28 02:42:08;;;;;;;24.88;6.45;;;;;;;;;;4992282;28;20038;-62
2021/03/28 02:45:01;;;;;;;19.52;4.45;;;;;;;;;;4992507;28;20054;-62
2021/03/28 02:47:52;;;;;;;17.13;4.82;;;;;;;;;;4992893;28;20054;-63
2021/03/28 02:50:40;;;;;;;16.58;5.47;;;;;;;;;;4993130;28;20093;-63
2021/03/28 02:53:43;;;;;;;21.73;5.75;;;;;;;;;;5008917;28;20046;-62
2021/03/28 02:56:41;;;;;;;22.50;4.95;;;;;;;;;;5012299;28;20072;-64
2021/03/28 02:59:45;;;;;;;15.50;5.40;;;;;;;;;;5012333;28;20415;-63
2021/03/28 03:02:30;;;;;;;18.38;5.22;;;;;;;;;;5007745;28;20490;-62
2021/03/28 03:05:18;;;;;;;18.58;4.65;;;;;;;;;;4992755;28;20109;-63
2021/03/28 03:08:06;;;;;;;16.25;4.55;;;;;;;;;;4992599;28;20058;-63
2021/03/28 03:10:59;;;;;;;16.42;4.03;;;;;;;;;;4992870;28;20050;-63
2021/03/28 03:13:44;;;;;;;17.00;4.40;;;;;;;;;;5001739;28;20420;-62
2021/03/28 03:16:32;;;;;;;21.45;5.00;;;;;;;;;;4992051;28;20056;-63
2021/03/28 03:19:36;;;;;;;17.33;4.88;;;;;;;;;;4990550;28;20054;-63
2021/03/28 03:22:40;;;;;;;20.02;4.68;;;;;;;;;;4992845;28;20050;-63
2021/03/28 03:25:32;;;;;;;18.17;4.97;;;;;;;;;;4973074;28;20129;-63
2021/03/28 03:28:28;;;;;;;15.75;5.50;;;;;;;;;;4973145;28;20409;-63
2021/03/28 03:31:14;;;;;;;17.45;4.70;;;;;;;;;;4972073;28;20102;-62
2021/03/28 03:34:17;;;;;;;19.55;5.32;;;;;;;;;;4990881;28;20049;-62
2021/03/28 03:37:20;;;;;;;16.73;6.10;;;;;;;;;;5013755;28;20049;-63
2021/03/28 03:40:17;;;;;;;17.73;5.03;;;;;;;;;;5015061;28;20527;-62
2021/03/28 03:43:21;;;;;;;18.85;5.88;;;;;;;;;;5015073;28;20116;-63
2021/03/28 03:46:07;;;;;;;22.25;5.80;;;;;;;;;;4976707;28;20149;-63
2021/03/28 03:48:58;;;;;;;18.63;5.63;;;;;;;;;;4976652;28;20046;-63
2021/03/28 03:52:02;;;;;;;18.35;5.28;;;;;;;;;;4976551;28;20055;-63
2021/03/28 03:55:01;;;;;;;18.00;6.05;;;;;;;;;;4987433;28;20046;-62
2021/03/28 03:57:50;;;;;;;18.50;5.53;;;;;;;;;;4994885;28;20129;-62
2021/03/28 04:00:48;;;;;;;15.70;4.85;;;;;;;;;;4995007;28;20046;-63
2021/03/28 04:03:35;;;;;;;14.60;5.68;;;;;;;;;;4994873;28;20500;-63
2021/03/28 04:06:20;;;;;;;17.63;5.10;;;;;;;;;;5013880;28;20502;-63
2021/03/28 04:09:09;;;;;;;19.23;5.30;;;;;;;;;;5015643;28;20050;-63
2021/03/28 04:12:00;;;;;;;24.65;5.07;;;;;;;;;;5014992;28;20054;-63
2021/03/28 04:14:45;;;;;;;15.63;5.13;;;;;;;;;;5014590;28;20042;-63
2021/03/28 04:17:49;;;;;;;21.55;5.47;;;;;;;;;;5015609;28;20045;-63
2021/03/28 04:20:44;;;;;;;28.15;5.93;;;;;;;;;;5014199;28;20053;-63
2021/03/28 04:23:38;;;;;;;19.42;6.13;;;;;;;;;;5015274;28;20435;-63
2021/03/28 04:26:38;;;;;;;16.90;5.50;;;;;;;;;;5000969;28;20059;-63
2021/03/28 04:29:24;;;;;;;16.70;5.40;;;;;;;;;;4995676;28;20046;-63
2021/03/28 04:32:24;;;;;;;22.75;5.85;;;;;;;;;;4995469;28;20539;-63
2021/03/28 04:35:16;;;;;;;15.30;5.35;;;;;;;;;;4996048;28;20082;-63
2021/03/28 04:38:06;;;;;;;20.40;5.82;;;;;;;;;;5014690;28;20042;-62
2021/03/28 04:40:57;;;;;;;20.67;6.45;;;;;;;;;;5013799;28;20096;-62
2021/03/28 04:43:54;;;;;;;19.05;6.18;;;;;;;;;;5014450;28;20420;-62
2021/03/28 04:46:45;;;;;;;17.95;6.15;;;;;;;;;;5003317;28;20405;-62
2021/03/28 04:49:31;;;;;;;22.40;5.82;;;;;;;;;;4993831;28;20050;-62
2021/03/28 04:52:19;;;;;;;20.95;5.63;;;;;;;;;;4994675;28;20050;-63
2021/03/28 04:55:04;;;;;;;20.00;5.50;;;;;;;;;;4994340;28;20382;-62
2021/03/28 04:57:55;;;;;;;17.33;5.60;;;;;;;;;;5011620;28;20081;-62
2021/03/28 05:00:45;;;;;;;14.18;4.63;;;;;;;;;;5013996;28;20042;-63
2021/03/28 05:03:49;;;;;;;21.58;5.53;;;;;;;;;;5013196;28;20049;-62
2021/03/28 05:06:53;;;;;;;17.85;5.13;;;;;;;;;;5008125;28;20042;-63
2021/03/28 05:09:57;;;;;;;23.00;6.40;;;;;;;;;;4994477;28;20051;-62
2021/03/28 05:12:46;;;;;;;19.60;6.22;;;;;;;;;;4993309;28;20050;-62
2021/03/28 05:15:40;;;;;;;21.73;6.47;;;;;;;;;;4994105;28;20137;-62
2021/03/28 05:18:34;;;;;;;24.88;5.65;;;;;;;;;;4994258;28;20069;-62
2021/03/28 05:21:39;;;;;;;24.67;6.57;;;;;;;;;;4994050;28;20070;-62
2021/03/28 05:24:43;;;;;;;23.10;6.40;;;;;;;;;;4993925;28;20047;-63
2021/03/28 05:27:41;;;;;;;19.98;6.18;;;;;;;;;;4994185;28;20042;-62
2021/03/28 05:30:42;;;;;;;14.18;5.75;;;;;;;;;;4993030;28;20056;-62
2021/03/28 05:33:46;;;;;;;15.25;5.75;;;;;;;;;;4993313;28;20311;-63
2021/03/28 05:36:34;;;;;;;19.48;6.05;;;;;;;;;;4999005;28;20045;-62
2021/03/28 05:39:40;;;;;;;16.92;5.68;;;;;;;;;;4994722;28;20046;-62
2021/03/28 05:42:25;;;;;;;15.45;5.57;;;;;;;;;;4992678;28;20050;-62
2021/03/28 05:45:15;;;;;;;17.45;6.18;;;;;;;;;;4993538;28;20050;-62
2021/03/28 05:48:06;;;;;;;15.68;7.05;;;;;;;;;;4997269;28;20053;-62
2021/03/28 05:51:01;;;;;;;13.45;5.45;;;;;;;;;;5013403;28;20057;-62
2021/03/28 05:53:51;;;;;;;17.92;6.40;;;;;;;;;;5012259;28;20136;-61
2021/03/28 05:56:55;;;;;;;18.60;5.90;;;;;;;;;;5011953;28;20389;-62
2021/03/28 06:00:09;;;;;;;18.75;5.72;;;;;;;;;;5122079;22;20182;-63
2021/03/28 06:03:13;;;;;;;21.25;6.70;;;;;;;;;;5086199;28;20044;-64
2021/03/28 06:05:59;;;;;;;15.57;5.05;;;;;;;;;;5072395;28;20060;-63
2021/03/28 06:08:50;;;;;;;20.70;5.68;;;;;;;;;;5077970;28;20051;-64
2021/03/28 06:12:02;;;;;;;14.25;5.32;;;;;;;;;;5092879;28;20409;-63
2021/03/28 06:14:50;;;;;;;12.02;4.35;;;;;;;;;;5084371;28;20060;-63
2021/03/28 06:17:54;;;;;;;24.33;5.72;;;;;;;;;;5092607;28;20408;-63
2021/03/28 06:20:39;;;;;;;18.17;5.25;;;;;;;;;;5091874;28;20123;-64
2021/03/28 06:23:27;;;;;;;13.93;4.55;;;;;;;;;;5092233;28;20048;-63
2021/03/28 06:26:17;;;;;;;12.73;4.65;;;;;;;;;;5089324;28;20048;-64
2021/03/28 06:29:27;;;;;;;14.38;4.22;;;;;;;;;;5089600;28;20048;-63
2021/03/28 06:32:31;;;;;;;12.60;4.55;;;;;;;;;;5089111;28;20150;-64
2021/03/28 06:35:46;;;;;;;9.80;3.70;;;;;;;;;;5089562;28;20072;-64
2021/03/28 06:38:50;;;;;;;13.23;2.95;;;;;;;;;;5084888;28;20040;-63
2021/03/28 06:41:40;;;;;;;12.65;3.53;;;;;;;;;;5089470;28;20107;-63
2021/03/28 06:44:26;;;;;;;11.35;3.50;;;;;;;;;;5089728;28;20498;-64
2021/03/28 06:47:29;;;;;;;14.00;3.75;;;;;;;;;;5091627;28;20044;-63
2021/03/28 06:50:27;;;;;;;11.82;3.58;;;;;;;;;;5090000;28;20563;-63
2021/03/28 06:53:16;;;;;;;7.47;2.50;;;;;;;;;;5091676;28;20046;-63
2021/03/28 06:56:11;;;;;;;9.13;2.92;;;;;;;;;;5073889;28;20040;-64
2021/03/28 06:59:01;;;;;;;10.93;2.72;;;;;;;;;;5090074;28;20143;-64
2021/03/28 07:02:05;;;;;;;9.57;3.25;;;;;;;;;;5090921;28;20048;-63
2021/03/28 07:05:09;;;;;;;11.88;3.03;;;;;;;;;;5091831;28;20506;-63
2021/03/28 07:08:14;;;;;;;11.77;3.10;;;;;;;;;;5092144;28;20131;-64
2021/03/28 07:11:18;;;;;;;13.80;3.15;;;;;;;;;;5093776;28;20047;-64
2021/03/28 07:14:13;;;;;;;13.48;3.08;;;;;;;;;;5095184;28;20044;-63
2021/03/28 07:17:08;;;;;;;9.20;2.70;;;;;;;;;;5094826;28;20060;-64
2021/03/28 07:19:53;;;;;;;11.95;2.55;;;;;;;;;;5094803;28;20040;-64
2021/03/28 07:22:55;;;;;;;8.88;2.90;;;;;;;;;;5096320;28;20052;-63
2021/03/28 07:25:48;;;;;;;11.00;2.93;;;;;;;;;;5094839;28;20090;-64
2021/03/28 07:28:55;;;;;;;7.57;2.55;;;;;;;;;;5095544;28;20052;-64
2021/03/28 07:31:42;;;;;;;14.75;3.42;;;;;;;;;;5094633;28;20117;-63
2021/03/28 07:34:38;;;;;;;9.50;2.70;;;;;;;;;;5094131;28;20048;-64
2021/03/28 07:37:25;;;;;;;15.25;2.97;;;;;;;;;;5108981;28;20044;-64
2021/03/28 07:40:10;;;;;;;14.10;2.90;;;;;;;;;;5095644;28;20044;-64
2021/03/28 07:43:03;;;;;;;8.75;3.35;;;;;;;;;;5095637;28;20036;-64
2021/03/28 07:45:49;;;;;;;11.93;2.58;;;;;;;;;;5089757;28;20048;-64
2021/03/28 07:48:52;;;;;;;9.68;3.13;;;;;;;;;;5095330;28;20486;-64
2021/03/28 07:51:37;;;;;;;;;;;;;;;;;;5095759;28;20050;-64
2021/03/28 07:54:41;;;;;;;6.93;1.90;;;;;;;;;;5095170;28;19920;-64
2021/03/28 07:57:26;;;;;;;9.30;2.47;;;;;;;;;;5074917;28;20051;-63
2021/03/28 08:00:26;;;;;;;11.13;2.75;;;;;;;;;;5074908;28;20068;-64
2021/03/28 08:03:20;;;;;;;7.65;2.55;;;;;;;;;;5075098;28;20045;-63
2021/03/28 08:06:14;;;;;;;9.13;2.75;;;;;;;;;;5085746;28;20536;-64
2021/03/28 08:09:03;;;;;;;10.10;2.60;;;;;;;;;;5095155;28;20056;-64
2021/03/28 08:11:52;;;;;;;13.07;2.80;;;;;;;;;;5094927;28;20044;-64
2021/03/28 08:14:48;;;;;;;9.88;3.08;;;;;;;;;;5095876;28;20050;-64
2021/03/28 08:17:52;;;;;;;14.10;2.88;;;;;;;;;;5093768;28;20054;-64
2021/03/28 08:20:53;;;;;;;13.90;2.70;;;;;;;;;;5093992;28;20485;-64
2021/03/28 08:23:44;;;;;;;18.83;2.80;;;;;;;;;;5092499;28;20054;-64
2021/03/28 08:26:38;;;;;;;10.80;2.85;;;;;;;;;;5093915;28;20417;-63
2021/03/28 08:29:34;;;;;;;7.82;2.03;;;;;;;;;;5087438;28;20051;-64
2021/03/28 08:32:44;;;;;;;11.63;2.58;;;;;;;;;;5091192;28;20121;-64
2021/03/28 08:35:29;;;;;;;8.45;2.72;;;;;;;;;;5061647;28;20127;-63
2021/03/28 08:38:29;;;;;;;9.55;1.92;;;;;;;;;;5085153;28;20080;-64
2021/03/28 08:41:19;;;;;;;7.60;2.58;;;;;;;;;;5090724;28;20571;-64
2021/03/28 08:44:23;;;;;;;7.78;2.20;;;;;;;;;;5090370;28;20048;-63
2021/03/28 08:47:27;;;;;;;9.88;2.70;;;;;;;;;;5090861;28;20044;-63
2021/03/28 08:50:42;;;;;;;9.63;1.80;;;;;;;;;;5090954;28;20036;-64
2021/03/28 08:53:46;;;;;;;9.10;2.25;;;;;;;;;;5084121;28;20040;-65
2021/03/28 08:56:50;;;;;;;9.15;2.38;;;;;;;;;;5087333;28;20040;-64
2021/03/28 08:59:54;;;;;;;5.97;2.30;;;;;;;;;;5093103;28;20123;-63
2021/03/28 09:02:48;;;;;;;7.03;2.05;;;;;;;;;;5092686;28;20072;-64
2021/03/28 09:05:46;;;;;;;6.88;1.98;;;;;;;;;;5093740;28;20044;-64
2021/03/28 09:08:45;;;;;;;11.27;3.25;;;;;;;;;;5090891;28;20036;-63
2021/03/28 09:11:49;;;;;;;6.72;1.92;;;;;;;;;;5088891;28;20127;-64
2021/03/28 09:14:39;;;;;;;9.63;2.22;;;;;;;;;;5092476;28;20497;-64
2021/03/28 09:18:03;;;;;;;10.65;2.33;;;;;;;;;;5076838;28;20052;-64
2021/03/28 09:20:53;;;;;;;6.88;2.33;;;;;;;;;;5011086;28;20516;-63
2021/03/28 09:23:44;;;;;;;9.88;2.00;;;;;;;;;;4997815;28;20516;-64
2021/03/28 09:26:45;;;;;;;8.70;2.08;;;;;;;;;;5087663;28;20055;-63
2021/03/28 09:29:49;;;;;;;10.27;3.30;;;;;;;;;;5088225;28;20506;-64
2021/03/28 09:32:44;;;;;;;4.18;1.55;;;;;;;;;;5093670;28;20056;-64
2021/03/28 09:35:49;;;;;;;8.82;2.03;;;;;;;;;;5093017;28;20078;-65
2021/03/28 09:38:35;;;;;;;6.85;2.13;;;;;;;;;;5106326;28;20059;-65
2021/03/28 09:41:23;;;;;;;6.25;2.05;;;;;;;;;;5086223;28;20047;-65
2021/03/28 09:44:10;;;;;;;8.65;2.25;;;;;;;;;;5087322;28;20131;-65
2021/03/28 09:46:55;;;;;;;10.68;2.25;;;;;;;;;;5091973;28;20102;-65
2021/03/28 09:49:44;;;;;;;5.13;1.98;;;;;;;;;;5093287;28;20052;-65
2021/03/28 09:52:36;;;;;;;9.52;2.45;;;;;;;;;;5091960;28;20052;-65
2021/03/28 09:55:21;;;;;;;9.77;2.20;;;;;;;;;;5092699;28;20052;-65
2021/03/28 09:58:37;;;;;;;8.55;2.05;;;;;;;;;;5092757;28;20040;-65
2021/03/28 10:01:31;;;;;;;13.20;3.00;;;;;;;;;;5072252;28;20044;-63
2021/03/28 10:04:18;;;;;;;7.72;2.42;;;;;;;;;;5092465;28;20048;-64
2021/03/28 10:07:03;;;;;;;5.78;1.98;;;;;;;;;;5082133;28;20127;-64
2021/03/28 10:10:02;;;;;;;10.25;2.55;;;;;;;;;;5077532;28;20044;-64
2021/03/28 10:12:50;;;;;;;6.32;2.97;;;;;;;;;;5087561;28;20111;-64
2021/03/28 10:15:43;;;;;;;6.43;2.60;;;;;;;;;;5092392;28;20051;-64
2021/03/28 10:18:47;;;;;;;6.85;2.33;;;;;;;;;;5071315;28;20491;-64
2021/03/28 10:21:32;;;;;;;8.57;3.28;;;;;;;;;;5075034;28;20059;-64
2021/03/28 10:24:23;;;;;;;8.20;2.33;;;;;;;;;;5072152;28;20044;-64
2021/03/28 10:27:47;;;;;;;12.95;2.85;;;;;;;;;;5084143;28;20548;-64
2021/03/28 10:30:32;;;;;;;8.23;2.67;;;;;;;;;;5029971;28;20132;-64
2021/03/28 10:33:37;;;;;;;4.55;2.25;;;;;;;;;;5029817;28;20094;-63
2021/03/28 10:36:22;;;;;;;6.70;2.15;;;;;;;;;;5091305;28;20078;-64
2021/03/28 10:39:20;;;;;;;9.48;2.50;;;;;;;;;;5092336;28;20044;-64
2021/03/28 10:42:14;;;;;;;11.48;3.08;;;;;;;;;;5092153;28;20052;-63
2021/03/28 10:45:05;;;;;;;9.45;2.90;;;;;;;;;;5091685;28;20044;-63
2021/03/28 10:48:09;;;;;;;9.43;2.55;;;;;;;;;;5092153;28;20051;-63
2021/03/28 10:50:59;;;;;;;9.02;2.78;;;;;;;;;;5092242;28;20052;-63
2021/03/28 10:54:03;;;;;;;5.40;2.65;;;;;;;;;;5090909;28;20054;-63
2021/03/28 10:57:07;;;;;;;7.80;2.53;;;;;;;;;;5082560;28;20045;-63
2021/03/28 11:00:11;;;;;;;13.38;3.95;;;;;;;;;;5077094;28;20136;-63
2021/03/28 11:03:03;;;;;;;10.27;3.28;;;;;;;;;;5088556;28;20040;-63
2021/03/28 11:06:06;;;;;;;6.45;2.78;;;;;;;;;;5086234;28;20410;-63
2021/03/28 11:09:12;;;;;;;6.80;2.92;;;;;;;;;;5090525;28;20064;-63
2021/03/28 11:11:57;;;;;;;11.82;3.40;;;;;;;;;;5090462;28;20490;-64
2021/03/28 11:14:48;;;;;;;8.18;2.60;;;;;;;;;;5086321;28;20422;-63
2021/03/28 11:17:42;;;;;;;11.40;3.38;;;;;;;;;;5086142;28;20036;-63
2021/03/28 11:20:29;;;;;;;13.40;3.47;;;;;;;;;;5091355;28;20518;-63
2021/03/28 11:23:38;;;;;;;11.90;3.05;;;;;;;;;;5090424;28;20512;-64
2021/03/28 11:26:29;;;;;;;7.97;2.85;;;;;;;;;;5075588;28;20143;-63
2021/03/28 11:29:33;;;;;;;9.52;3.10;;;;;;;;;;5081526;28;20586;-63
2021/03/28 11:32:18;;;;;;;11.43;3.60;;;;;;;;;;5087183;28;20048;-63
2021/03/28 11:35:06;;;;;;;12.52;3.25;;;;;;;;;;5084614;28;20044;-64
2021/03/28 11:38:10;;;;;;;9.27;3.53;;;;;;;;;;5078561;28;20036;-63
2021/03/28 11:41:08;;;;;;;13.48;3.08;;;;;;;;;;5087009;28;20564;-63
2021/03/28 11:43:57;;;;;;;9.95;3.30;;;;;;;;;;5078968;28;20052;-63
2021/03/28 11:46:49;;;;;;;9.60;3.25;;;;;;;;;;5086818;28;20036;-63
2021/03/28 11:49:49;;;;;;;12.93;3.45;;;;;;;;;;5087629;28;20040;-63
2021/03/28 11:52:52;;;;;;;7.07;3.60;;;;;;;;;;5086711;28;20044;-63
2021/03/28 11:55:43;;;;;;;12.30;3.20;;;;;;;;;;5078992;28;20044;-63
2021/03/28 11:58:45;;;;;;;13.57;3.15;;;;;;;;;;5092274;28;20146;-63
2021/03/28 12:01:49;;;;;;;9.13;2.92;;;;;;;;;;5091906;28;20044;-63
2021/03/28 12:04:40;;;;;;;13.15;3.55;;;;;;;;;;5094337;28;20072;-63
2021/03/28 12:07:29;;;;;;;16.70;4.30;;;;;;;;;;5081452;28;20044;-63
2021/03/28 12:10:18;;;;;;;13.60;3.78;;;;;;;;;;5092638;28;20444;-62
2021/03/28 12:13:21;;;;;;;15.77;3.95;;;;;;;;;;5094622;28;20426;-63
2021/03/28 12:16:07;;;;;;;9.00;3.90;;;;;;;;;;5083024;28;20040;-63
2021/03/28 12:18:53;;;;;;;11.57;3.70;;;;;;;;;;5094657;28;20051;-63
2021/03/28 12:21:41;;;;;;;13.13;4.03;;;;;;;;;;5079438;28;20072;-63
2021/03/28 12:24:27;;;;;;;11.93;4.13;;;;;;;;;;5092991;28;20047;-63
2021/03/28 12:27:23;;;;;;;13.25;4.28;;;;;;;;;;5095365;28;20051;-63
2021/03/28 12:30:31;;;;;;;12.82;4.05;;;;;;;;;;5084183;28;20044;-63
2021/03/28 12:33:17;;;;;;;8.68;3.72;;;;;;;;;;5091483;28;20047;-63
2021/03/28 12:36:04;;;;;;;16.90;4.65;;;;;;;;;;5090393;28;20121;-63
2021/03/28 12:38:50;;;;;;;20.40;5.80;;;;;;;;;;5092221;28;20044;-63
2021/03/28 12:41:36;;;;;;;11.45;3.88;;;;;;;;;;5092834;28;20044;-64
2021/03/28 12:44:29;;;;;;;14.23;3.58;;;;;;;;;;5110485;27;20444;-63
2021/03/28 12:47:20;;;;;;;15.88;5.10;;;;;;;;;;5091648;28;20048;-63
2021/03/28 12:50:11;;;;;;;13.07;4.55;;;;;;;;;;5089495;28;20070;-63
2021/03/28 12:53:02;;;;;;;9.88;4.18;;;;;;;;;;5091933;28;20048;-64
2021/03/28 12:55:47;;;;;;;13.02;4.68;;;;;;;;;;5089982;28;20032;-63
2021/03/28 12:58:42;;;;;;;11.73;3.83;;;;;;;;;;5082771;28;20051;-63
2021/03/28 13:01:34;;;;;;;10.25;3.60;;;;;;;;;;5093638;28;20482;-63
2021/03/28 13:04:21;;;;;;;11.85;4.20;;;;;;;;;;5092124;28;20036;-64
2021/03/28 13:07:07;;;;;;;14.70;3.90;;;;;;;;;;5093330;28;20054;-63
2021/03/28 13:09:52;;;;;;;10.63;3.60;;;;;;;;;;5093004;28;20072;-63
2021/03/28 13:12:37;;;;;;;12.60;4.30;;;;;;;;;;5093234;28;20040;-63
2021/03/28 13:15:27;;;;;;;13.02;4.35;;;;;;;;;;5091868;28;20044;-64
2021/03/28 13:18:18;;;;;;;12.57;3.80;;;;;;;;;;5093168;28;20040;-66
2021/03/28 13:21:14;;;;;;;17.65;4.00;;;;;;;;;;5093324;28;20494;-63
2021/03/28 13:24:04;;;;;;;13.80;4.40;;;;;;;;;;5092184;28;20394;-64
2021/03/28 13:27:08;;;;;;;15.20;4.28;;;;;;;;;;5091939;28;20489;-63
2021/03/28 13:29:54;;;;;;;13.25;4.07;;;;;;;;;;5080299;28;20413;-63
2021/03/28 13:32:40;;;;;;;14.55;4.05;;;;;;;;;;5077881;28;20052;-63
2021/03/28 13:35:28;;;;;;;13.00;4.70;;;;;;;;;;5087034;28;20043;-63
2021/03/28 13:38:26;;;;;;;8.90;4.07;;;;;;;;;;5092544;28;20100;-63
2021/03/28 13:41:26;;;;;;;10.10;3.85;;;;;;;;;;5092847;28;20413;-63
2021/03/28 13:44:17;;;;;;;12.15;3.85;;;;;;;;;;5092774;28;20044;-64
2021/03/28 13:47:05;;;;;;;11.48;3.33;;;;;;;;;;5092630;28;20044;-63
2021/03/28 13:49:51;;;;;;;11.23;3.58;;;;;;;;;;5091693;28;20048;-63
2021/03/28 13:52:37;;;;;;;10.23;3.75;;;;;;;;;;5092671;28;20040;-64
2021/03/28 13:55:39;;;;;;;10.90;3.33;;;;;;;;;;5091468;28;20051;-64
2021/03/28 13:58:31;;;;;;;15.97;3.47;;;;;;;;;;5090551;28;20044;-64
2021/03/28 14:01:16;;;;;;;14.93;3.93;;;;;;;;;;5091492;28;20044;-63
2021/03/28 14:04:22;;;;;;;12.63;4.28;;;;;;;;;;5092337;28;20044;-63
2021/03/28 14:07:13;;;;;;;14.57;4.03;;;;;;;;;;5091297;28;20043;-63
2021/03/28 14:10:04;;;;;;;11.48;2.55;;;;;;;;;;5091359;28;20480;-63
2021/03/28 14:13:13;;;;;;;12.23;2.67;;;;;;;;;;5092279;28;20040;-63
2021/03/28 14:16:01;;;;;;;13.95;4.47;;;;;;;;;;5078868;28;20036;-63
2021/03/28 14:18:50;;;;;;;13.60;3.47;;;;;;;;;;5091893;28;20048;-63
2021/03/28 14:21:35;;;;;;;12.80;3.08;;;;;;;;;;5075251;28;20094;-63
2021/03/28 14:24:23;;;;;;;13.10;3.65;;;;;;;;;;5090806;28;20064;-64
2021/03/28 14:27:08;;;;;;;10.43;3.00;;;;;;;;;;5091943;28;20052;-63
2021/03/28 14:30:12;;;;;;;12.93;3.22;;;;;;;;;;5091981;28;20044;-63
2021/03/28 14:33:06;;;;;;;12.02;3.63;;;;;;;;;;5092117;28;20520;-63
2021/03/28 14:35:52;;;;;;;14.57;3.35;;;;;;;;;;5081772;28;20924;-64
2021/03/28 14:38:57;;;;;;;13.43;3.47;;;;;;;;;;5087792;28;20036;-63
2021/03/28 14:42:11;;;;;;;11.50;2.58;;;;;;;;;;5079839;28;20048;-63
2021/03/28 14:45:03;;;;;;;12.82;3.45;;;;;;;;;;5078533;28;20055;-64
2021/03/28 14:48:07;;;;;;;12.68;2.50;;;;;;;;;;5079839;28;20118;-63
2021/03/28 14:51:01;;;;;;;17.23;3.70;;;;;;;;;;5082244;28;20506;-64
2021/03/28 14:53:55;;;;;;;11.82;2.83;;;;;;;;;;5081086;28;20081;-64
2021/03/28 14:56:40;;;;;;;16.60;3.65;;;;;;;;;;5086202;28;20486;-64
2021/03/28 14:59:32;;;;;;;16.55;3.28;;;;;;;;;;5084309;28;20036;-64
2021/03/28 15:02:35;;;;;;;15.50;3.80;;;;;;;;;;5090377;28;20056;-64
2021/03/28 15:05:39;;;;;;;11.35;3.13;;;;;;;;;;5091183;28;20055;-64
2021/03/28 15:08:40;;;;;;;21.23;3.78;;;;;;;;;;5091163;28;20586;-64
2021/03/28 15:11:39;;;;;;;15.93;3.65;;;;;;;;;;5090061;28;20453;-64
2021/03/28 15:14:26;;;;;;;17.75;3.97;;;;;;;;;;5090941;28;20428;-63
2021/03/28 15:17:12;;;;;;;15.65;3.30;;;;;;;;;;5090217;28;20048;-63
2021/03/28 15:20:09;;;;;;;10.63;3.00;;;;;;;;;;5082883;28;20040;-64
2021/03/28 15:22:54;;;;;;;16.35;3.20;;;;;;;;;;5069912;28;20410;-63
2021/03/28 15:26:09;;;;;;;12.40;3.55;;;;;;;;;;5075921;28;20405;-64
2021/03/28 15:28:59;;;;;;;14.43;3.38;;;;;;;;;;5087464;28;20048;-64
2021/03/28 15:31:47;;;;;;;17.23;3.15;;;;;;;;;;5087890;28;20490;-64
2021/03/28 15:34:41;;;;;;;12.40;3.20;;;;;;;;;;5095288;28;20083;-63
2021/03/28 15:37:43;;;;;;;15.25;3.67;;;;;;;;;;5078695;28;20043;-63
2021/03/28 15:40:38;;;;;;;19.13;4.32;;;;;;;;;;5075374;28;20383;-63
2021/03/28 15:43:31;;;;;;;13.07;3.30;;;;;;;;;;5093965;28;20048;-63
2021/03/28 15:46:34;;;;;;;19.02;4.45;;;;;;;;;;5093622;28;20044;-63
2021/03/28 15:49:19;;;;;;;12.88;3.45;;;;;;;;;;5093163;28;20040;-63
2021/03/28 15:52:09;;;;;;;16.05;3.63;;;;;;;;;;5094151;28;20565;-63
2021/03/28 15:55:13;;;;;;;19.55;3.55;;;;;;;;;;5091696;28;20052;-63
2021/03/28 15:58:07;;;;;;;15.30;3.90;;;;;;;;;;5082323;28;20040;-63
2021/03/28 16:01:00;;;;;;;19.42;4.35;;;;;;;;;;5094143;28;20040;-63
2021/03/28 16:03:45;;;;;;;;;;;;;;;;;;5094299;28;20063;-63
2021/03/28 16:06:33;;;;;;;14.43;3.95;;;;;;;;;;5094401;28;19927;-63
2021/03/28 16:09:24;;;;;;;14.07;2.95;;;;;;;;;;5094022;28;20098;-63
2021/03/28 16:12:38;;;;;;;15.80;3.85;;;;;;;;;;5094223;28;20494;-64
2021/03/28 16:15:32;;;;;;;16.33;3.40;;;;;;;;;;5062226;28;20495;-63
2021/03/28 16:18:29;;;;;;;10.32;2.90;;;;;;;;;;5094246;28;20095;-63
2021/03/28 16:21:26;;;;;;;17.08;4.13;;;;;;;;;;5093278;28;20127;-63
2021/03/28 16:24:31;;;;;;;13.35;3.22;;;;;;;;;;5093268;28;20042;-63
2021/03/28 16:27:17;;;;;;;16.65;3.80;;;;;;;;;;5094239;28;20453;-63
2021/03/28 16:30:21;;;;;;;15.18;3.90;;;;;;;;;;5094143;28;20047;-63
2021/03/28 16:33:11;;;;;;;16.17;3.47;;;;;;;;;;5094151;28;20240;-64
2021/03/28 16:35:56;;;;;;;14.30;3.92;;;;;;;;;;5092800;28;20044;-63
2021/03/28 16:38:50;;;;;;;9.80;3.50;;;;;;;;;;5094007;28;20042;-63
2021/03/28 16:41:46;;;;;;;18.88;3.45;;;;;;;;;;5073621;28;20052;-63
2021/03/28 16:44:31;;;;;;;14.07;3.33;;;;;;;;;;5089635;28;20040;-63
2021/03/28 16:47:16;;;;;;;9.40;3.33;;;;;;;;;;5091863;28;20051;-63
2021/03/28 16:50:07;;;;;;;15.13;3.38;;;;;;;;;;5091919;28;20494;-64
2021/03/28 16:53:10;;;;;;;15.25;3.28;;;;;;;;;;5091969;28;20078;-63
2021/03/28 16:55:55;;;;;;;13.02;3.63;;;;;;;;;;5072379;28;20044;-64
2021/03/28 16:58:46;;;;;;;15.30;3.50;;;;;;;;;;5091156;28;20147;-63
2021/03/28 17:01:32;;;;;;;15.07;4.28;;;;;;;;;;5084550;28;20052;-63
2021/03/28 17:04:17;;;;;;;15.55;3.95;;;;;;;;;;5090474;28;20655;-63
2021/03/28 17:07:04;;;;;;;13.77;3.20;;;;;;;;;;5087982;28;20138;-64
2021/03/28 17:09:49;;;;;;;16.08;3.90;;;;;;;;;;5077512;28;20048;-64
2021/03/28 17:12:34;;;;;;;12.65;3.33;;;;;;;;;;5090339;28;20132;-63